createdAt,value
2019-04-05T03:07:16.607Z,20.3
2019-04-05T03:08:06.889Z,20.2
2019-04-05T03:09:11.904Z,20.1
2019-04-05T03:09:47.332Z,20
2019-04-05T03:10:37.589Z,20
2019-04-05T03:11:27.146Z,19.9
2019-04-05T03:12:20.216Z,19.9
2019-04-05T03:13:07.553Z,19.9
2019-04-05T03:13:57.635Z,19.8
2019-04-05T03:14:47.275Z,19.8
2019-04-05T03:15:37.061Z,19.7
2019-04-05T03:16:46.776Z,19.6
2019-04-05T03:17:17.263Z,19.6
2019-04-05T03:18:07.688Z,19.6
2019-04-05T03:18:57.800Z,19.5
2019-04-05T03:19:47.500Z,19.4
2019-04-05T03:20:37.739Z,19.4
2019-04-05T03:21:27.895Z,19.3
2019-04-05T03:22:17.581Z,19.3
2019-04-05T03:23:08.047Z,19.3
2019-04-05T03:23:58.687Z,19.2
2019-04-05T03:24:48.340Z,19.1
2019-04-05T03:25:38.606Z,19.1
2019-04-05T03:26:28.776Z,18.9
2019-04-05T03:27:32.640Z,18.1
2019-04-05T03:28:08.570Z,17.6
2019-04-05T03:28:58.923Z,17.6
2019-04-05T03:29:48.419Z,17.9
2019-04-05T03:30:39.388Z,18.1
2019-04-05T03:31:35.059Z,18.3
2019-04-05T03:32:19.245Z,18.4
2019-04-05T03:33:09.201Z,18.4
2019-04-05T03:33:59.616Z,18.6
2019-04-05T03:34:50.321Z,18.6
2019-04-05T03:35:39.318Z,18.6
2019-04-05T03:36:27.943Z,18.6
2019-04-05T03:37:18.466Z,18.6
2019-04-05T03:38:09.013Z,18.5
2019-04-05T03:38:58.386Z,18.5
2019-04-05T03:39:49.680Z,18.5
2019-04-05T03:40:39.103Z,18.5
2019-04-05T03:41:28.765Z,18.4
2019-04-05T03:42:19.379Z,18.4
2019-04-05T03:43:08.207Z,18.4
2019-04-05T03:43:59.382Z,18.3
2019-04-05T03:44:49.310Z,18.3
2019-04-05T03:45:39.540Z,18.3
2019-04-05T03:46:29.179Z,18.3
2019-04-05T03:47:19.979Z,18.2
2019-04-05T03:48:09.413Z,18.1
2019-04-05T03:49:00.652Z,18.1
2019-04-05T03:49:49.677Z,18.1
2019-04-05T03:50:39.553Z,18.1
2019-04-05T03:51:29.392Z,18
2019-04-05T03:52:20.159Z,17.9
2019-04-05T03:53:10.217Z,17.9
2019-04-05T03:54:01.036Z,17.9
2019-04-05T03:54:50.552Z,17.8
2019-04-05T03:55:40.085Z,17.8
2019-04-05T03:56:30.451Z,17.8
2019-04-05T03:57:20.726Z,17.8
2019-04-05T03:58:09.878Z,17.8
2019-04-05T03:59:00.308Z,17.8
2019-04-05T03:59:49.823Z,17.7
2019-04-05T04:00:41.300Z,17.6
2019-04-05T04:01:30.523Z,17.6
2019-04-05T04:02:24.459Z,17.6
2019-04-05T04:03:10.344Z,17.6
2019-04-05T04:04:00.162Z,17.6
2019-04-05T04:05:05.310Z,17.5
2019-04-05T04:05:40.468Z,17.4
2019-04-05T04:06:30.606Z,17.4
2019-04-05T04:07:21.042Z,17.4
2019-04-05T04:08:10.981Z,17.4
2019-04-05T04:08:59.860Z,17.4
2019-04-05T04:09:51.448Z,17.3
2019-04-05T04:10:41.143Z,17.3
2019-04-05T04:11:31.245Z,17.3
2019-04-05T04:12:21.343Z,17.3
2019-04-05T04:13:12.046Z,17.3
2019-04-05T04:14:02.156Z,17.2
2019-04-05T04:14:51.169Z,17.2
2019-04-05T04:15:42.105Z,17.1
2019-04-05T04:16:31.845Z,17.1
2019-04-05T04:17:20.944Z,17.1
2019-04-05T04:18:11.954Z,17.1
2019-04-05T04:19:02.669Z,17.1
2019-04-05T04:22:21.815Z,16.9
2019-04-05T04:23:12.657Z,16.9
2019-04-05T04:24:03.131Z,16.9
2019-04-05T04:24:52.390Z,16.9
2019-04-05T04:25:42.064Z,16.8
2019-04-05T04:26:32.657Z,16.8
2019-04-05T04:27:21.158Z,16.8
2019-04-05T04:28:13.162Z,16.8
2019-04-05T04:29:03.596Z,16.8
2019-04-05T04:29:52.747Z,16.8
2019-04-05T04:30:42.773Z,16.8
2019-04-05T04:31:33.726Z,16.7
2019-04-05T04:32:24.163Z,16.7
2019-04-05T04:33:13.940Z,16.7
2019-04-05T04:34:03.948Z,16.6
2019-04-05T04:34:53.412Z,16.6
2019-04-05T04:35:58.719Z,16.6
2019-04-05T04:36:33.264Z,16.6
2019-04-05T04:37:23.579Z,16.6
2019-04-05T04:38:14.719Z,16.6
2019-04-05T04:39:03.633Z,16.6
2019-04-05T04:39:53.966Z,16.5
2019-04-05T04:40:44.093Z,16.5
2019-04-05T04:41:38.514Z,16.4
2019-04-05T04:42:24.715Z,16.4
2019-04-05T04:43:14.009Z,16.4
2019-04-05T04:44:04.682Z,16.4
2019-04-05T04:44:54.871Z,16.4
2019-04-05T04:45:43.901Z,16.4
2019-04-05T04:46:34.694Z,16.4
2019-04-05T04:47:36.066Z,16.4
2019-04-05T04:48:14.943Z,16.3
2019-04-05T04:49:04.933Z,16.3
2019-04-05T04:49:54.929Z,16.3
2019-04-05T04:50:44.398Z,16.3
2019-04-05T04:51:34.975Z,16.3
2019-04-05T04:52:39.710Z,16.3
2019-04-05T04:53:15.120Z,16.3
2019-04-05T04:54:04.922Z,16.3
2019-04-05T04:54:55.230Z,16.2
2019-04-05T04:55:45.330Z,16.2
2019-04-05T04:56:35.055Z,16.2
2019-04-05T04:57:25.682Z,16.2
2019-04-05T04:58:28.769Z,16.1
2019-04-05T04:59:04.995Z,16.1
2019-04-05T04:59:55.332Z,16.1
2019-04-05T05:00:45.157Z,16.1
2019-04-05T05:01:34.991Z,16.1
2019-04-05T05:02:26.087Z,16.1
2019-04-05T05:03:15.112Z,16.1
2019-04-05T05:04:08.857Z,16
2019-04-05T05:04:55.843Z,16
2019-04-05T05:05:45.774Z,16
2019-04-05T05:06:35.819Z,16
2019-04-05T05:07:26.136Z,16
2019-04-05T05:08:15.676Z,15.9
2019-04-05T05:09:06.302Z,15.9
2019-04-05T05:09:55.851Z,15.9
2019-04-05T05:10:45.884Z,15.9
2019-04-05T05:11:34.846Z,15.9
2019-04-05T05:12:25.179Z,15.9
2019-04-05T05:13:15.616Z,15.9
2019-04-05T05:14:06.139Z,15.9
2019-04-05T05:14:54.609Z,15.9
2019-04-05T05:15:46.000Z,15.9
2019-04-05T05:16:34.829Z,15.8
2019-04-05T05:17:39.662Z,15.8
2019-04-05T05:18:15.404Z,15.8
2019-04-05T05:19:05.959Z,15.8
2019-04-05T05:19:55.813Z,15.8
2019-04-05T05:20:48.244Z,15.8
2019-04-05T05:21:35.933Z,15.8
2019-04-05T05:22:26.485Z,15.8
2019-04-05T05:23:16.091Z,15.8
2019-04-05T05:24:06.658Z,15.8
2019-04-05T05:24:57.191Z,15.7
2019-04-05T05:25:50.296Z,15.7
2019-04-05T05:26:37.557Z,15.7
2019-04-05T05:27:27.116Z,15.7
2019-04-05T05:28:17.923Z,15.7
2019-04-05T05:29:07.296Z,15.7
2019-04-05T05:29:57.017Z,15.7
2019-04-05T05:30:47.541Z,15.6
2019-04-05T05:31:37.308Z,15.6
2019-04-05T05:32:26.843Z,15.6
2019-04-05T05:33:17.453Z,15.6
2019-04-05T05:34:06.967Z,15.6
2019-04-05T05:35:11.075Z,15.6
2019-04-05T05:35:47.911Z,15.6
2019-04-05T05:36:37.970Z,15.6
2019-04-05T05:37:27.218Z,15.6
2019-04-05T05:38:33.043Z,15.6
2019-04-05T05:39:08.817Z,15.6
2019-04-05T05:39:58.200Z,15.6
2019-04-05T05:40:48.542Z,15.5
2019-04-05T05:41:38.656Z,15.5
2019-04-05T05:42:28.110Z,15.5
2019-04-05T05:43:19.014Z,15.5
2019-04-05T05:44:09.112Z,15.5
2019-04-05T05:44:58.067Z,15.5
2019-04-05T05:45:48.690Z,15.5
2019-04-05T05:46:39.193Z,15.5
2019-04-05T05:47:28.832Z,15.5
2019-04-05T05:48:18.327Z,15.5
2019-04-05T05:49:08.936Z,15.4
2019-04-05T05:49:58.949Z,15.4
2019-04-05T05:50:48.937Z,15.4
2019-04-05T05:51:39.661Z,15.4
2019-04-05T05:52:29.625Z,15.4
2019-04-05T05:53:18.662Z,15.4
2019-04-05T05:54:09.567Z,15.4
2019-04-05T05:54:58.579Z,15.4
2019-04-05T05:55:49.379Z,15.4
2019-04-05T05:56:39.252Z,15.4
2019-04-05T05:57:29.734Z,15.4
2019-04-05T05:58:19.517Z,15.4
2019-04-05T05:59:09.349Z,15.4
2019-04-05T06:00:04.179Z,15.4
2019-04-05T06:00:49.999Z,15.4
2019-04-05T06:01:39.234Z,15.4
2019-04-05T06:02:29.349Z,15.3
2019-04-05T06:05:15.821Z,15.3
2019-04-05T06:06:12.793Z,15.3
2019-04-05T06:06:56.899Z,15.3
2019-04-05T06:07:46.519Z,15.3
2019-04-05T06:08:38.178Z,15.3
2019-04-05T06:09:26.074Z,15.3
2019-04-05T06:10:17.812Z,15.3
2019-04-05T06:11:06.695Z,15.3
2019-04-05T06:11:57.906Z,15.3
2019-04-05T06:12:47.606Z,15.3
2019-04-05T06:13:37.785Z,15.3
2019-04-05T06:14:28.385Z,15.3
2019-04-05T06:15:17.233Z,15.3
2019-04-05T06:16:08.453Z,15.3
2019-04-05T06:17:13.408Z,15.3
2019-04-05T06:17:48.350Z,15.2
2019-04-05T06:18:38.567Z,15.3
2019-04-05T06:19:28.426Z,15.2
2019-04-05T06:20:17.966Z,15.2
2019-04-05T06:21:11.500Z,15.2
2019-04-05T06:21:58.533Z,15.2
2019-04-05T06:22:50.508Z,15.2
2019-04-05T06:23:42.497Z,15.2
2019-04-05T06:24:29.008Z,15.2
2019-04-05T06:25:19.313Z,15.2
2019-04-05T06:26:08.944Z,15.2
2019-04-05T06:26:58.639Z,15.2
2019-04-05T06:27:48.959Z,15.2
2019-04-05T06:28:40.298Z,15.2
2019-04-05T06:29:28.850Z,15.1
2019-04-05T06:30:18.658Z,15.2
2019-04-05T06:31:09.337Z,15.1
2019-04-05T06:31:59.302Z,15.1
2019-04-05T06:32:48.838Z,15.1
2019-04-05T06:33:44.077Z,15.1
2019-04-05T06:34:43.275Z,15.1
2019-04-05T06:35:19.197Z,15.1
2019-04-05T06:36:09.040Z,15.1
2019-04-05T06:36:59.941Z,15.1
2019-04-05T06:37:49.231Z,15.1
2019-04-05T06:38:38.642Z,15.1
2019-04-05T06:39:29.337Z,15.1
2019-04-05T06:40:19.366Z,15.1
2019-04-05T06:41:09.809Z,15.1
2019-04-05T06:41:59.399Z,15.1
2019-04-05T06:42:50.007Z,15.1
2019-04-05T06:43:39.305Z,15.1
2019-04-05T06:44:33.268Z,15.1
2019-04-05T06:45:20.036Z,15.1
2019-04-05T06:46:12.189Z,15.1
2019-04-05T06:46:59.714Z,15.1
2019-04-05T06:47:50.241Z,15.1
2019-04-05T06:48:40.840Z,15.1
2019-04-05T06:49:30.536Z,15.1
2019-04-05T06:50:19.731Z,15.1
2019-04-05T06:51:10.153Z,15.1
2019-04-05T06:52:00.163Z,15.1
2019-04-05T06:53:05.653Z,15.1
2019-04-05T06:53:40.531Z,15.1
2019-04-05T06:54:31.324Z,15.1
2019-04-05T06:55:21.215Z,15.1
2019-04-05T06:56:10.731Z,15.1
2019-04-05T06:57:01.060Z,15.1
2019-04-05T06:57:51.771Z,15
2019-04-05T06:58:41.694Z,15.1
2019-04-05T06:59:31.000Z,15
2019-04-05T07:00:21.183Z,15
2019-04-05T07:01:10.225Z,15
2019-04-05T07:02:01.678Z,15
2019-04-05T07:02:51.280Z,15
2019-04-05T07:05:17.110Z,15
2019-04-05T07:06:06.831Z,15
2019-04-05T07:06:57.434Z,15
2019-04-05T07:07:47.670Z,15
2019-04-05T07:08:37.097Z,15
2019-04-05T07:09:26.774Z,15
2019-04-05T07:10:17.655Z,15
2019-04-05T07:11:07.807Z,15
2019-04-05T07:11:57.570Z,15
2019-04-05T07:12:47.058Z,15
2019-04-05T07:13:37.554Z,15
2019-04-05T07:14:28.242Z,15
2019-04-05T07:15:17.257Z,15
2019-04-05T07:16:07.791Z,14.9
2019-04-05T07:16:57.852Z,14.9
2019-04-05T07:17:48.467Z,14.9
2019-04-05T07:18:44.334Z,14.9
2019-04-05T07:19:28.365Z,15
2019-04-05T07:20:18.229Z,14.9
2019-04-05T07:21:07.647Z,14.9
2019-04-05T07:21:58.520Z,14.9
2019-04-05T07:22:47.853Z,14.9
2019-04-05T07:23:38.351Z,14.9
2019-04-05T07:24:28.751Z,14.9
2019-04-05T07:25:18.756Z,14.9
2019-04-05T07:26:08.761Z,14.9
2019-04-05T07:26:58.107Z,14.9
2019-04-05T07:27:48.926Z,14.9
2019-04-05T07:28:38.731Z,14.9
2019-04-05T07:29:29.376Z,14.9
2019-04-05T07:30:19.367Z,14.9
2019-04-05T07:31:08.691Z,14.9
2019-04-05T07:31:58.422Z,14.9
2019-04-05T07:32:49.017Z,14.9
2019-04-05T07:33:38.531Z,14.9
2019-04-05T07:34:29.193Z,14.9
2019-04-05T07:35:32.299Z,14.9
2019-04-05T07:36:12.220Z,14.9
2019-04-05T07:36:59.646Z,14.9
2019-04-05T07:37:49.630Z,14.9
2019-04-05T07:38:39.163Z,14.9
2019-04-05T07:39:29.831Z,14.9
2019-04-05T07:40:19.267Z,14.9
2019-04-05T07:41:09.681Z,14.9
2019-04-05T07:41:59.450Z,14.9
2019-04-05T07:42:50.058Z,14.9
2019-04-05T07:43:40.355Z,14.9
2019-04-05T07:44:29.571Z,14.9
2019-04-05T07:45:19.909Z,14.9
2019-04-05T07:46:09.978Z,14.9
2019-04-05T07:47:00.096Z,14.9
2019-04-05T07:47:50.110Z,14.9
2019-04-05T07:48:53.776Z,14.9
2019-04-05T07:49:30.285Z,14.9
2019-04-05T07:50:20.265Z,14.9
2019-04-05T07:51:10.885Z,14.9
2019-04-05T07:52:00.955Z,14.9
2019-04-05T07:52:50.797Z,14.9
2019-04-05T07:53:41.067Z,14.9
2019-04-05T07:54:30.005Z,14.9
2019-04-05T07:55:20.125Z,14.9
2019-04-05T07:56:10.710Z,14.9
2019-04-05T07:57:00.775Z,14.9
2019-04-05T07:57:51.160Z,14.9
2019-04-05T07:58:40.617Z,14.9
2019-04-05T07:59:31.542Z,14.9
2019-04-05T08:00:35.944Z,14.9
2019-04-05T08:01:11.622Z,14.9
2019-04-05T08:02:01.379Z,14.9
2019-04-05T08:02:51.191Z,14.9
2019-04-05T08:03:40.977Z,14.9
2019-04-05T08:04:31.050Z,14.9
2019-04-05T08:05:21.134Z,14.9
2019-04-05T08:06:11.434Z,14.9
2019-04-05T08:07:02.040Z,14.9
2019-04-05T08:07:51.827Z,14.9
2019-04-05T08:08:42.138Z,14.9
2019-04-05T08:09:32.028Z,14.9
2019-04-05T08:10:24.333Z,14.9
2019-04-05T08:11:11.924Z,14.9
2019-04-05T08:12:02.375Z,14.9
2019-04-05T08:12:52.185Z,14.9
2019-04-05T08:13:41.742Z,14.9
2019-04-05T08:14:32.110Z,14.8
2019-04-05T08:15:22.055Z,14.9
2019-04-05T08:16:12.467Z,14.9
2019-04-05T08:17:02.190Z,14.9
2019-04-05T08:17:51.447Z,14.9
2019-04-05T08:18:41.770Z,14.9
2019-04-05T08:19:32.507Z,14.9
2019-04-05T08:20:25.802Z,14.9
2019-04-05T08:21:12.792Z,14.9
2019-04-05T08:22:02.921Z,14.8
2019-04-05T08:22:51.877Z,14.9
2019-04-05T08:23:42.682Z,14.8
2019-04-05T08:24:32.827Z,14.8
2019-04-05T08:25:22.287Z,14.8
2019-04-05T08:26:13.460Z,14.9
2019-04-05T08:27:03.537Z,14.8
2019-04-05T08:27:53.004Z,14.8
2019-04-05T08:28:43.654Z,14.8
2019-04-05T08:29:32.334Z,14.8
2019-04-05T08:30:23.754Z,14.8
2019-04-05T08:31:21.701Z,14.8
2019-04-05T08:32:18.056Z,14.9
2019-04-05T08:32:53.940Z,14.8
2019-04-05T08:33:45.107Z,14.8
2019-04-05T08:34:34.094Z,14.8
2019-04-05T08:35:23.262Z,14.8
2019-04-05T08:36:13.639Z,14.8
2019-04-05T08:37:03.921Z,14.8
2019-04-05T08:37:54.024Z,14.8
2019-04-05T08:38:47.539Z,14.8
2019-04-05T08:39:33.631Z,14.8
2019-04-05T08:40:23.903Z,14.8
2019-04-05T08:41:14.514Z,14.8
2019-04-05T08:42:03.770Z,14.8
2019-04-05T08:42:53.838Z,14.8
2019-04-05T08:43:43.623Z,14.8
2019-04-05T08:44:33.993Z,14.8
2019-04-05T08:45:24.558Z,14.8
2019-04-05T08:46:14.035Z,14.8
2019-04-05T08:47:04.758Z,14.8
2019-04-05T08:47:54.551Z,14.8
2019-04-05T08:48:44.268Z,14.8
2019-04-05T08:49:33.725Z,14.8
2019-04-05T08:50:25.198Z,14.8
2019-04-05T08:51:14.807Z,14.8
2019-04-05T08:52:04.805Z,14.8
2019-04-05T08:52:54.308Z,14.8
2019-04-05T08:53:44.855Z,14.8
2019-04-05T08:54:44.915Z,14.8
2019-04-05T08:55:25.293Z,14.8
2019-04-05T08:56:14.971Z,14.8
2019-04-05T08:57:05.138Z,14.8
2019-04-05T08:57:56.169Z,14.8
2019-04-05T08:58:45.245Z,14.8
2019-04-05T08:59:35.100Z,14.8
2019-04-05T09:00:25.425Z,14.8
2019-04-05T09:01:16.098Z,14.8
2019-04-05T09:02:05.469Z,14.8
2019-04-05T09:02:58.324Z,14.8
2019-04-05T09:03:45.422Z,14.8
2019-04-05T09:04:34.563Z,14.8
2019-04-05T09:05:25.180Z,14.8
2019-04-05T09:06:15.490Z,14.8
2019-04-05T09:07:05.858Z,14.8
2019-04-05T09:07:55.987Z,14.8
2019-04-05T09:08:46.060Z,14.8
2019-04-05T09:09:36.082Z,14.8
2019-04-05T09:10:24.891Z,14.8
2019-04-05T09:11:15.758Z,14.8
2019-04-05T09:12:05.946Z,14.8
2019-04-05T09:12:56.836Z,14.8
2019-04-05T09:13:46.834Z,14.8
2019-04-05T09:14:36.168Z,14.8
2019-04-05T09:15:26.167Z,14.8
2019-04-05T09:16:20.047Z,14.8
2019-04-05T09:17:06.824Z,14.8
2019-04-05T09:17:56.118Z,14.8
2019-04-05T09:18:49.114Z,14.8
2019-04-05T09:19:35.968Z,14.8
2019-04-05T09:20:26.409Z,14.8
2019-04-05T09:21:21.977Z,14.8
2019-04-05T09:22:05.868Z,14.8
2019-04-05T09:22:56.209Z,14.8
2019-04-05T09:23:46.887Z,14.8
2019-04-05T09:24:36.301Z,14.8
2019-04-05T09:25:28.251Z,14.8
2019-04-05T09:26:16.959Z,14.8
2019-04-05T09:27:07.569Z,14.8
2019-04-05T09:27:56.950Z,14.8
2019-04-05T09:28:46.717Z,14.8
2019-04-05T09:29:37.291Z,14.8
2019-04-05T09:30:27.796Z,14.8
2019-04-05T09:31:17.696Z,14.8
2019-04-05T09:32:22.307Z,14.8
2019-04-05T09:32:57.449Z,14.8
2019-04-05T09:33:47.798Z,14.8
2019-04-05T09:34:37.981Z,14.8
2019-04-05T09:35:27.667Z,14.8
2019-04-05T09:36:18.294Z,14.8
2019-04-05T09:37:07.755Z,14.8
2019-04-05T09:37:57.043Z,14.8
2019-04-05T09:38:48.478Z,14.8
2019-04-05T09:39:38.483Z,14.7
2019-04-05T09:40:29.048Z,14.7
2019-04-05T09:41:18.313Z,14.7
2019-04-05T09:42:08.162Z,14.7
2019-04-05T09:42:58.248Z,14.7
2019-04-05T09:43:48.893Z,14.7
2019-04-05T09:44:38.425Z,14.7
2019-04-05T09:45:28.634Z,14.7
2019-04-05T09:46:19.248Z,14.6
2019-04-05T09:47:08.187Z,14.6
2019-04-05T09:47:59.078Z,14.6
2019-04-05T09:48:49.427Z,14.6
2019-04-05T09:49:45.456Z,14.6
2019-04-05T09:50:28.756Z,14.6
2019-04-05T09:51:19.192Z,14.6
2019-04-05T09:52:08.064Z,14.6
2019-04-05T09:52:57.602Z,14.6
2019-04-05T09:53:48.480Z,14.6
2019-04-05T09:54:39.349Z,14.6
2019-04-05T09:55:29.132Z,14.6
2019-04-05T09:56:17.808Z,14.6
2019-04-05T09:57:09.562Z,14.6
2019-04-05T09:57:59.519Z,14.6
2019-04-05T09:58:49.632Z,14.6
2019-04-05T09:59:39.057Z,14.6
2019-04-05T10:00:30.282Z,14.5
2019-04-05T10:01:19.512Z,14.5
2019-04-05T10:02:10.166Z,14.5
2019-04-05T10:02:59.985Z,14.5
2019-04-05T10:03:50.018Z,14.5
2019-04-05T10:07:56.274Z,14.4
2019-04-05T10:08:59.854Z,14.5
2019-04-05T10:10:05.704Z,14.5
2019-04-05T10:11:50.563Z,14.5
2019-04-05T12:06:16.775Z,14.8
2019-04-05T12:07:06.612Z,14.8
2019-04-05T12:08:05.525Z,14.8
2019-04-05T12:08:46.497Z,14.8
2019-04-05T12:09:37.305Z,14.8
2019-04-05T12:10:27.890Z,14.8
2019-04-05T12:11:17.465Z,14.8
2019-04-05T12:12:06.513Z,14.8
2019-04-05T12:12:57.050Z,14.8
2019-04-05T12:13:50.850Z,14.8
2019-04-05T12:14:43.549Z,14.8
2019-04-05T12:15:27.772Z,14.8
2019-04-05T12:16:19.189Z,14.8
2019-04-05T12:17:15.086Z,14.8
2019-04-05T12:17:57.094Z,14.8
2019-04-05T12:18:47.762Z,14.8
2019-04-05T12:19:44.106Z,14.8
2019-04-05T12:20:27.796Z,14.8
2019-04-05T12:21:20.970Z,14.8
2019-04-05T12:22:15.595Z,14.8
2019-04-05T12:23:01.758Z,14.8
2019-04-05T12:23:47.901Z,14.8
2019-04-05T12:24:41.199Z,14.8
2019-04-05T12:25:28.808Z,14.8
2019-04-05T12:26:17.934Z,14.8
2019-04-05T12:27:13.530Z,14.8
2019-04-05T12:28:16.553Z,14.8
2019-04-05T12:28:47.917Z,14.8
2019-04-05T12:29:38.219Z,14.8
2019-04-05T12:30:28.009Z,14.8
2019-04-05T12:31:19.184Z,14.8
2019-04-05T12:32:08.473Z,14.8
2019-04-05T12:33:12.584Z,14.8
2019-04-05T12:33:56.491Z,14.8
2019-04-05T12:34:38.593Z,14.8
2019-04-05T12:35:31.212Z,14.8
2019-04-05T12:36:18.373Z,14.8
2019-04-05T12:37:09.595Z,14.8
2019-04-05T12:38:06.921Z,14.8
2019-04-05T12:38:49.423Z,14.8
2019-04-05T12:39:44.118Z,14.8
2019-04-05T12:40:29.795Z,14.8
2019-04-05T12:41:22.941Z,14.8
2019-04-05T12:42:14.253Z,14.8
2019-04-05T12:43:01.738Z,14.8
2019-04-05T12:43:56.057Z,14.8
2019-04-05T12:44:39.018Z,14.8
2019-04-05T12:45:30.149Z,14.8
2019-04-05T12:46:24.688Z,14.8
2019-04-05T12:47:09.220Z,14.8
2019-04-05T12:48:02.999Z,14.8
2019-04-05T12:48:54.517Z,14.8
2019-04-05T12:49:40.460Z,14.8
2019-04-05T12:50:29.147Z,14.8
2019-04-05T12:51:24.778Z,14.8
2019-04-05T12:52:21.469Z,14.8
2019-04-05T12:53:04.432Z,14.8
2019-04-05T12:53:50.046Z,14.8
2019-04-05T12:54:40.291Z,14.8
2019-04-05T12:55:33.267Z,14.8
2019-04-05T12:56:20.125Z,14.8
2019-04-05T12:57:10.032Z,14.8
2019-04-05T12:58:04.173Z,14.8
2019-04-05T12:58:51.155Z,14.8
2019-04-05T12:59:40.961Z,14.8
2019-04-05T13:00:34.619Z,14.8
2019-04-05T13:01:21.097Z,14.8
2019-04-05T13:02:10.867Z,14.8
2019-04-05T13:03:03.474Z,14.8
2019-04-05T13:03:54.381Z,14.8
2019-04-05T13:04:41.292Z,14.8
2019-04-05T13:05:30.887Z,14.8
2019-04-05T13:06:26.262Z,14.8
2019-04-05T13:07:10.943Z,14.8
2019-04-05T13:08:03.011Z,14.8
2019-04-05T13:08:55.544Z,14.8
2019-04-05T13:09:46.125Z,14.8
2019-04-05T13:10:38.330Z,14.8
2019-04-05T13:11:26.991Z,14.8
2019-04-05T13:12:11.743Z,14.8
2019-04-05T13:13:06.622Z,14.8
2019-04-05T13:13:50.856Z,14.8
2019-04-05T13:14:42.302Z,14.8
2019-04-05T13:15:30.466Z,14.8
2019-04-05T13:16:21.323Z,14.8
2019-04-05T13:17:11.733Z,14.8
2019-04-05T13:18:06.336Z,14.8
2019-04-05T13:18:51.842Z,14.8
2019-04-05T13:19:41.882Z,14.8
2019-04-05T13:20:35.895Z,14.8
2019-04-05T13:21:34.439Z,14.8
2019-04-05T13:22:12.323Z,14.8
2019-04-05T13:23:09.341Z,14.8
2019-04-05T13:23:52.070Z,14.8
2019-04-05T13:24:46.995Z,14.8
2019-04-05T13:25:32.383Z,14.8
2019-04-05T13:26:22.400Z,14.8
2019-04-05T13:27:17.735Z,14.8
2019-04-05T13:28:21.880Z,14.8
2019-04-05T13:28:57.553Z,14.8
2019-04-05T13:29:42.970Z,14.8
2019-04-05T13:30:33.299Z,14.8
2019-04-05T13:31:26.890Z,14.8
2019-04-05T13:32:13.036Z,14.8
2019-04-05T13:33:02.590Z,14.8
2019-04-05T13:33:58.065Z,14.8
2019-04-05T13:34:43.502Z,14.8
2019-04-05T13:35:33.029Z,14.8
2019-04-05T13:36:23.680Z,14.8
2019-04-05T13:37:32.560Z,14.8
2019-04-05T13:38:07.652Z,14.8
2019-04-05T13:39:08.489Z,14.8
2019-04-05T13:39:44.017Z,14.8
2019-04-05T13:40:38.142Z,14.8
2019-04-05T13:41:26.287Z,14.8
2019-04-05T13:42:14.412Z,14.8
2019-04-05T13:43:08.629Z,14.8
2019-04-05T13:43:53.851Z,14.8
2019-04-05T13:44:43.946Z,14.8
2019-04-05T13:45:33.902Z,14.8
2019-04-05T13:46:38.977Z,14.8
2019-04-05T13:47:17.257Z,14.8
2019-04-05T13:48:04.197Z,14.8
2019-04-05T13:48:54.287Z,14.8
2019-04-05T13:49:49.199Z,14.8
2019-04-05T13:50:33.828Z,14.9
2019-04-05T13:51:44.837Z,14.8
2019-04-05T13:52:19.582Z,14.8
2019-04-05T13:53:04.313Z,14.8
2019-04-05T13:53:55.268Z,14.8
2019-04-05T13:54:48.543Z,14.8
2019-04-05T13:55:35.054Z,14.8
2019-04-05T13:56:25.083Z,14.8
2019-04-05T13:57:18.768Z,14.8
2019-04-05T13:58:13.550Z,14.8
2019-04-05T13:58:55.636Z,14.8
2019-04-05T13:59:47.784Z,14.8
2019-04-05T14:00:35.378Z,14.9
2019-04-05T14:01:29.898Z,14.8
2019-04-05T14:02:15.745Z,14.8
2019-04-05T14:03:05.306Z,14.8
2019-04-05T14:03:58.598Z,14.8
2019-04-05T14:04:45.958Z,14.8
2019-04-05T14:07:16.727Z,14.8
2019-04-05T14:08:19.278Z,14.8
2019-04-05T14:08:56.579Z,14.8
2019-04-05T14:09:49.395Z,14.8
2019-04-05T14:10:37.253Z,14.8
2019-04-05T14:11:29.203Z,14.8
2019-04-05T14:12:19.033Z,14.8
2019-04-05T14:13:11.457Z,14.9
2019-04-05T14:13:56.878Z,14.8
2019-04-05T14:14:56.625Z,14.8
2019-04-05T14:15:45.093Z,14.8
2019-04-05T14:16:27.923Z,14.8
2019-04-05T14:17:22.490Z,14.8
2019-04-05T14:18:07.779Z,14.8
2019-04-05T14:18:58.782Z,14.8
2019-04-05T14:19:51.924Z,14.8
2019-04-05T14:20:37.381Z,14.8
2019-04-05T14:22:09.018Z,14.8
2019-04-05T14:22:23.818Z,14.8
2019-04-05T14:23:09.395Z,14.8
2019-04-05T14:24:05.785Z,14.8
2019-04-05T14:24:58.521Z,14.8
2019-04-05T14:25:40.890Z,14.8
2019-04-05T14:26:34.810Z,14.8
2019-04-05T14:27:20.825Z,14.8
2019-04-05T14:28:14.204Z,14.8
2019-04-05T14:29:05.985Z,14.8
2019-04-05T14:29:54.129Z,14.9
2019-04-05T14:30:42.693Z,14.9
2019-04-05T14:31:34.877Z,14.8
2019-04-05T14:32:30.277Z,14.8
2019-04-05T14:33:11.295Z,14.8
2019-04-05T14:34:03.426Z,14.8
2019-04-05T14:34:55.943Z,14.8
2019-04-05T14:35:41.420Z,14.8
2019-04-05T14:36:32.170Z,14.8
2019-04-05T14:37:27.803Z,14.8
2019-04-05T14:38:15.181Z,14.8
2019-04-05T14:39:01.953Z,14.8
2019-04-05T14:39:51.447Z,14.9
2019-04-05T14:40:42.082Z,14.8
2019-04-05T14:41:32.082Z,14.8
2019-04-05T14:42:24.477Z,14.8
2019-04-05T14:43:16.735Z,14.8
2019-04-05T14:44:02.515Z,14.8
2019-04-05T14:44:51.562Z,14.9
2019-04-05T14:45:42.207Z,14.8
2019-04-05T14:46:39.808Z,14.8
2019-04-05T14:47:28.936Z,14.8
2019-04-05T14:48:11.044Z,14.8
2019-04-05T14:49:05.794Z,14.8
2019-04-05T14:49:52.244Z,14.8
2019-04-05T14:50:42.255Z,14.9
2019-04-05T14:51:37.644Z,14.8
2019-04-05T14:52:25.422Z,14.8
2019-04-05T14:53:12.097Z,14.9
2019-04-05T14:54:08.588Z,14.9
2019-04-05T14:54:52.358Z,14.9
2019-04-05T14:55:42.751Z,14.8
2019-04-05T14:56:37.439Z,14.8
2019-04-05T14:57:22.729Z,14.9
2019-04-05T14:58:20.844Z,14.9
2019-04-05T14:59:02.842Z,14.8
2019-04-05T14:59:52.751Z,14.8
2019-04-05T15:00:48.253Z,14.9
2019-04-05T15:01:32.747Z,14.8
2019-04-05T15:02:22.809Z,14.8
2019-04-05T15:03:13.507Z,14.8
2019-04-05T15:04:03.526Z,14.8
2019-04-05T15:04:56.639Z,14.8
2019-04-05T15:05:43.628Z,14.9
2019-04-05T15:06:35.346Z,14.9
2019-04-05T15:07:28.313Z,14.8
2019-04-05T15:08:13.317Z,14.8
2019-04-05T15:09:06.606Z,14.9
2019-04-05T15:09:57.716Z,14.9
2019-04-05T15:10:43.398Z,14.9
2019-04-05T15:11:37.811Z,14.8
2019-04-05T15:12:23.783Z,14.9
2019-04-05T15:13:13.629Z,14.8
2019-04-05T15:14:03.093Z,14.9
2019-04-05T15:14:53.533Z,14.9
2019-04-05T15:15:43.760Z,14.9
2019-04-05T15:16:33.956Z,14.9
2019-04-05T15:17:25.260Z,14.9
2019-04-05T15:18:13.736Z,14.9
2019-04-05T15:19:04.579Z,14.9
2019-04-05T15:19:53.513Z,14.9
2019-04-05T15:20:44.225Z,14.9
2019-04-05T15:21:40.725Z,14.9
2019-04-05T15:22:27.390Z,14.9
2019-04-05T15:23:21.170Z,14.9
2019-04-05T15:24:05.220Z,14.9
2019-04-05T15:24:56.165Z,14.9
2019-04-05T15:25:44.315Z,14.9
2019-04-05T15:26:35.397Z,14.9
2019-04-05T15:27:29.037Z,14.9
2019-04-05T15:28:15.486Z,14.9
2019-04-05T15:29:05.124Z,14.9
2019-04-05T15:29:58.907Z,14.9
2019-04-05T15:30:45.077Z,14.9
2019-04-05T15:31:35.827Z,14.9
2019-04-05T15:32:32.046Z,14.9
2019-04-05T15:33:14.810Z,14.9
2019-04-05T15:34:06.872Z,14.9
2019-04-05T15:34:59.915Z,14.9
2019-04-05T15:35:45.511Z,14.9
2019-04-05T15:36:39.799Z,14.9
2019-04-05T15:37:25.347Z,14.9
2019-04-05T15:38:15.411Z,14.9
2019-04-05T15:39:09.579Z,14.9
2019-04-05T15:39:55.859Z,14.9
2019-04-05T15:40:45.697Z,14.9
2019-04-05T15:41:36.196Z,14.9
2019-04-05T15:42:26.574Z,14.9
2019-04-05T15:43:16.626Z,14.9
2019-04-05T15:44:08.926Z,14.9
2019-04-05T15:44:56.671Z,14.9
2019-04-05T15:45:49.541Z,14.9
2019-04-05T15:46:36.066Z,14.9
2019-04-05T15:47:32.924Z,14.9
2019-04-05T15:48:16.081Z,14.9
2019-04-05T15:49:06.366Z,14.9
2019-04-05T15:49:59.693Z,14.9
2019-04-05T15:50:45.568Z,14.9
2019-04-05T15:51:36.668Z,14.9
2019-04-05T15:52:35.529Z,14.9
2019-04-05T15:53:16.166Z,14.9
2019-04-05T15:54:08.558Z,14.9
2019-04-05T15:54:56.461Z,14.9
2019-04-05T15:55:46.488Z,14.9
2019-04-05T15:56:41.152Z,14.9
2019-04-05T15:57:26.058Z,14.9
2019-04-05T15:58:16.336Z,14.9
2019-04-05T15:59:10.664Z,15
2019-04-05T15:59:56.418Z,15
2019-04-05T16:00:47.231Z,14.9
2019-04-05T16:01:41.697Z,15
2019-04-05T16:02:27.517Z,15
2019-04-05T16:03:17.063Z,15
2019-04-05T16:04:10.895Z,15
2019-04-05T16:04:56.093Z,15
2019-04-05T16:07:16.470Z,15
2019-04-05T16:08:06.270Z,15
2019-04-05T16:08:56.250Z,15
2019-04-05T16:09:45.788Z,15
2019-04-05T16:10:36.104Z,15
2019-04-05T16:11:26.704Z,15
2019-04-05T16:12:16.215Z,15
2019-04-05T16:13:09.503Z,15
2019-04-05T16:13:56.952Z,15
2019-04-05T16:14:46.957Z,15
2019-04-05T16:15:36.739Z,15.1
2019-04-05T16:16:26.870Z,15.1
2019-04-05T16:17:19.389Z,15.1
2019-04-05T16:18:06.644Z,15.1
2019-04-05T16:18:59.384Z,15.1
2019-04-05T16:19:48.285Z,15.1
2019-04-05T16:20:36.614Z,15.1
2019-04-05T16:21:26.953Z,15.1
2019-04-05T16:22:17.206Z,15.1
2019-04-05T16:23:06.787Z,15.1